Time;durP1;ratioP1;P1;durP2;ratioP2;P2;SDS_P1;SDS_P2;PMS_P1;PMS_P2;Temp;Humidity;BMP_temperature;BMP_pressure;BME280_temperature;BME280_humidity;BME280_pressure;Samples;Min_cycle;Max_cycle;Signal;HPM_P1;HPM_P2
2021/01/04 00:02:20;;;;;;;12.20;6.73;;;;;;;-0.13;100.00;98010.97;3808793;77;44151;-20
2021/01/04 00:07:49;;;;;;;14.33;6.77;;;;;;;-0.10;100.00;98013.88;3834963;77;44134;-19
2021/01/04 00:12:58;;;;;;;12.57;6.60;;;;;;;-0.14;100.00;98007.94;3737752;78;44093;-19
2021/01/04 00:18:19;;;;;;;12.33;6.37;;;;;;;-0.14;100.00;98017.21;3731842;79;44085;-20
2021/01/04 00:23:33;;;;;;;15.30;6.47;;;;;;;-0.14;100.00;98011.92;3696728;78;43306;-20
2021/01/04 00:28:40;;;;;;;12.33;5.83;;;;;;;-0.17;100.00;98010.80;3742767;79;44066;-20
2021/01/04 00:33:49;;;;;;;13.30;6.57;;;;;;;-0.20;100.00;98008.38;3688587;80;43326;-20
2021/01/04 00:39:23;;;;;;;12.50;6.13;;;;;;;-0.20;100.00;98003.08;3705279;79;43714;-20
2021/01/04 00:44:35;;;;;;;11.83;6.00;;;;;;;-0.18;100.00;98011.28;3787815;77;43799;-20
2021/01/04 00:49:44;;;;;;;15.83;6.73;;;;;;;-0.14;100.00;98010.59;3786655;78;43385;-20
2021/01/04 00:55:02;;;;;;;18.70;7.17;;;;;;;-0.27;100.00;98017.20;3787813;77;44266;-20
2021/01/04 01:00:16;;;;;;;16.53;6.87;;;;;;;-0.22;100.00;98018.22;3769416;78;42874;-20
2021/01/04 01:05:25;;;;;;;15.00;6.63;;;;;;;-0.21;100.00;98028.69;3737512;78;43298;-20
2021/01/04 01:10:34;;;;;;;16.37;7.10;;;;;;;-0.24;100.00;98023.62;3758325;78;43504;-20
2021/01/04 01:15:42;;;;;;;19.70;6.93;;;;;;;-0.22;100.00;98024.83;3733170;78;44029;-20
2021/01/04 01:20:51;;;;;;;22.60;7.13;;;;;;;-0.26;100.00;98020.23;3747252;78;44055;-20
2021/01/04 01:26:11;;;;;;;30.77;7.60;;;;;;;-0.28;100.00;98016.83;3787422;78;44238;-20
2021/01/04 01:31:39;;;;;;;18.60;7.17;;;;;;;-0.28;100.00;98023.91;3753715;79;42986;-20
2021/01/04 01:37:06;;;;;;;16.50;6.83;;;;;;;-0.34;100.00;98027.81;3755172;77;44068;-20
2021/01/04 01:42:29;;;;;;;22.03;7.23;;;;;;;-0.30;100.00;98029.80;3755492;79;43669;-20
2021/01/04 01:47:40;;;;;;;54.70;8.20;;;;;;;-0.36;100.00;98035.86;3723425;78;44055;-20
2021/01/04 01:52:52;;;;;;;46.97;8.03;;;;;;;-0.39;100.00;98041.35;3711835;79;43708;-20
2021/01/04 01:58:23;;;;;;;63.10;8.67;;;;;;;-0.27;100.00;98041.48;3752638;79;44443;-20
2021/01/04 02:03:33;;;;;;;56.23;9.33;;;;;;;-0.29;100.00;98046.06;3751689;79;44505;-20
2021/01/04 02:08:41;;;;;;;53.10;9.13;;;;;;;-0.31;100.00;98044.81;3702806;79;44419;-20
2021/01/04 02:13:55;;;;;;;83.40;10.90;;;;;;;-0.29;100.00;98047.38;3624377;82;43677;-20
2021/01/04 02:19:07;;;;;;;89.03;11.27;;;;;;;-0.29;100.00;98046.06;3719495;79;43689;-20
2021/01/04 02:24:15;;;;;;;89.33;10.20;;;;;;;-0.30;100.00;98044.36;3695800;80;44069;-20
2021/01/04 02:29:22;;;;;;;106.47;12.53;;;;;;;-0.30;100.00;98045.19;3709286;78;44026;-20
2021/01/04 02:34:31;;;;;;;62.23;11.63;;;;;;;-0.25;100.00;98048.40;3825914;77;44429;-20
2021/01/04 02:39:41;;;;;;;84.03;12.40;;;;;;;-0.24;100.00;98042.61;3774688;78;44072;-20
2021/01/04 02:44:47;;;;;;;34.37;8.53;;;;;;;-0.32;100.00;98039.15;3700570;80;44236;-20
2021/01/04 02:49:57;;;;;;;44.83;9.43;;;;;;;-0.29;100.00;98039.44;3699772;79;44424;-20
2021/01/04 02:55:07;;;;;;;53.60;10.17;;;;;;;-0.24;100.00;98039.97;3699756;79;44095;-20
2021/01/04 03:00:18;;;;;;;66.13;12.03;;;;;;;-0.27;100.00;98044.13;3751641;79;43405;-20
2021/01/04 03:05:26;;;;;;;64.63;10.63;;;;;;;-0.27;100.00;98041.48;3740851;79;43718;-20
2021/01/04 03:10:34;;;;;;;40.13;10.23;;;;;;;-0.26;100.00;98040.08;3700139;80;43094;-20
2021/01/04 03:15:54;;;;;;;35.80;10.30;;;;;;;-0.27;100.00;98037.06;3699953;80;44089;-20
2021/01/04 03:21:03;;;;;;;56.43;10.83;;;;;;;-0.24;100.00;98043.48;3700187;80;44005;-20
2021/01/04 03:26:12;;;;;;;39.97;10.50;;;;;;;-0.30;100.00;98047.84;3699063;79;44065;-20
2021/01/04 03:31:18;;;;;;;31.30;10.03;;;;;;;-0.25;100.00;98051.50;3657825;80;43402;-20
2021/01/04 03:36:23;;;;;;;30.87;9.37;;;;;;;-0.30;100.00;98044.36;3717966;79;43700;-20
2021/01/04 03:41:30;;;;;;;35.93;9.63;;;;;;;-0.29;100.00;98039.44;3751763;79;44335;-20
2021/01/04 03:46:35;;;;;;;53.83;11.20;;;;;;;-0.30;100.00;98037.74;3726618;79;44540;-19
2021/01/04 03:51:43;;;;;;;56.67;11.37;;;;;;;-0.29;100.00;98034.98;3695674;80;43436;-18
2021/01/04 03:56:49;;;;;;;60.60;11.63;;;;;;;-0.30;100.00;98041.72;3658075;79;43432;-18
2021/01/04 04:01:57;;;;;;;59.87;11.30;;;;;;;-0.34;100.00;98041.91;3696890;80;44077;-19
2021/01/04 04:07:04;;;;;;;33.13;10.67;;;;;;;-0.33;100.00;98043.61;3725501;79;43735;-19
2021/01/04 04:12:11;;;;;;;44.80;11.87;;;;;;;-0.26;100.00;98045.83;3752530;79;42685;-19
2021/01/04 04:17:17;;;;;;;56.03;12.30;;;;;;;-0.25;100.00;98047.07;3721117;79;44002;-19
2021/01/04 04:22:24;;;;;;;59.97;11.47;;;;;;;-0.18;100.00;98050.16;3693564;80;43669;-19
2021/01/04 04:27:31;;;;;;;42.97;11.27;;;;;;;-0.19;100.00;98044.49;3704327;79;43689;-18
2021/01/04 04:32:37;;;;;;;43.00;11.10;;;;;;;-0.26;100.00;98049.80;3697512;80;43738;-19
2021/01/04 04:37:45;;;;;;;34.70;11.13;;;;;;;-0.27;100.00;98056.05;3697335;80;43255;-18
2021/01/04 04:42:55;;;;;;;52.73;12.33;;;;;;;-0.23;100.00;98053.58;3697670;80;43994;-19
2021/01/04 04:48:21;;;;;;;47.67;10.40;;;;;;;-0.21;100.00;98053.01;3697627;80;43464;-18
2021/01/04 04:53:50;;;;;;;59.27;12.47;;;;;;;-0.19;100.00;98056.41;3697762;79;43726;-18
2021/01/04 04:59:01;;;;;;;60.70;12.33;;;;;;;-0.17;100.00;98064.61;3695648;80;43686;-18
2021/01/04 05:04:25;;;;;;;29.47;10.77;;;;;;;-0.26;100.00;98062.58;3696294;80;42909;-18
2021/01/04 05:09:43;;;;;;;66.23;13.60;;;;;;;-0.21;100.00;98061.78;3657013;80;44390;-19
2021/01/04 05:14:52;;;;;;;48.00;11.87;;;;;;;-0.29;100.00;98069.88;3697290;80;43999;-18
2021/01/04 05:20:09;;;;;;;84.97;12.30;;;;;;;-0.22;100.00;98061.89;3659089;81;44027;-19
2021/01/04 05:25:40;;;;;;;66.37;12.50;;;;;;;-0.24;100.00;98065.11;3698150;79;44008;-19
2021/01/04 05:31:22;;;;;;;67.27;12.97;;;;;;;-0.26;100.00;98067.01;3753384;78;43677;-18
2021/01/04 05:37:00;;;;;;;78.53;14.17;;;;;;;-0.28;100.00;98067.13;3708473;80;43396;-19
2021/01/04 05:42:28;;;;;;;71.30;12.87;;;;;;;-0.30;100.00;98068.19;3708401;80;44054;-18
2021/01/04 05:47:40;;;;;;;99.73;13.67;;;;;;;-0.29;100.00;98067.23;3740647;79;43964;-18
2021/01/04 05:52:46;;;;;;;100.03;14.27;;;;;;;-0.37;100.00;98068.57;3731020;79;44086;-17
2021/01/04 05:57:55;;;;;;;63.13;12.77;;;;;;;-0.41;100.00;98072.84;3735223;79;43416;-18
2021/01/04 06:03:10;;;;;;;157.87;17.00;;;;;;;-0.38;100.00;98073.48;3759457;79;44571;-17
2021/01/04 06:08:25;;;;;;;139.50;15.47;;;;;;;-0.41;100.00;98069.71;3708237;79;43636;-17
2021/01/04 06:13:36;;;;;;;101.30;13.93;;;;;;;-0.40;100.00;98071.41;3708282;79;43477;-18
2021/01/04 06:18:46;;;;;;;111.47;15.10;;;;;;;-0.35;100.00;98070.65;3760605;79;44097;-17
2021/01/04 06:23:54;;;;;;;106.47;14.17;;;;;;;-0.38;100.00;98073.98;3739737;78;43677;-18
2021/01/04 06:29:03;;;;;;;135.50;14.43;;;;;;;-0.39;100.00;98075.77;3747791;79;43715;-17
2021/01/04 06:34:16;;;;;;;97.63;13.13;;;;;;;-0.45;100.00;98073.53;3771385;78;43689;-18
2021/01/04 06:39:26;;;;;;;116.23;13.40;;;;;;;-0.50;100.00;98064.58;3712273;78;43476;-18
2021/01/04 06:44:32;;;;;;;57.07;11.60;;;;;;;-0.49;100.00;98078.64;3708689;80;43417;-18
2021/01/04 06:49:42;;;;;;;58.70;11.23;;;;;;;-0.48;100.00;98080.34;3649475;80;43288;-18
2021/01/04 06:55:05;;;;;;;58.20;10.43;;;;;;;-0.44;100.00;98083.62;3709533;79;43983;-18
2021/01/04 07:00:22;;;;;;;52.63;10.90;;;;;;;-0.51;100.00;98090.66;3771061;78;44070;-19
2021/01/04 07:05:47;;;;;;;115.53;17.23;;;;;;;-0.40;100.00;98101.84;3759789;79;44059;-19
2021/01/04 07:11:03;;;;;;;49.70;11.20;;;;;;;-0.39;100.00;98107.52;3709366;79;44059;-18
2021/01/04 07:16:34;;;;;;;42.93;11.13;;;;;;;-0.41;100.00;98107.25;3707930;80;44048;-17
2021/01/04 07:21:46;;;;;;;67.67;13.03;;;;;;;-0.44;100.00;98104.80;3640982;80;43670;-18
2021/01/04 07:27:01;;;;;;;131.30;13.90;;;;;;;-0.34;100.00;98118.67;3729502;79;43443;-18
2021/01/04 07:32:10;;;;;;;61.93;12.17;;;;;;;-0.38;100.00;98126.42;3699988;79;44094;-18
2021/01/04 07:37:32;;;;;;;104.10;13.77;;;;;;;-0.30;100.00;98131.72;3696258;80;43281;-18
2021/01/04 07:42:52;;;;;;;91.73;13.43;;;;;;;-0.38;100.00;98129.08;3701806;80;43689;-18
2021/01/04 07:48:31;;;;;;;79.00;12.37;;;;;;;-0.38;100.00;98126.91;3646306;81;44012;-18
2021/01/04 07:54:19;;;;;;;61.00;10.57;;;;;;;-0.39;100.00;98127.86;3697510;79;44094;-18
2021/01/04 07:59:45;;;;;;;79.57;12.00;;;;;;;-0.37;100.00;98124.16;3750663;79;43334;-18
2021/01/04 08:05:27;;;;;;;87.47;14.13;;;;;;;-0.43;100.00;98125.89;3751249;79;44078;-18
2021/01/04 08:11:11;;;;;;;100.37;14.90;;;;;;;-0.30;100.00;98133.03;3691281;80;44157;-18
2021/01/04 08:16:22;;;;;;;113.37;13.57;;;;;;;-0.37;100.00;98133.91;3680555;79;44801;-18
2021/01/04 08:21:32;;;;;;;41.23;11.37;;;;;;;-0.35;100.00;98134.63;3701077;80;43751;-18
2021/01/04 08:26:49;;;;;;;45.60;11.33;;;;;;;-0.37;100.00;98138.71;3721931;79;44047;-19
2021/01/04 08:32:00;;;;;;;31.00;9.97;;;;;;;-0.38;100.00;98152.89;3767632;77;44060;-18
2021/01/04 08:37:06;;;;;;;38.40;11.17;;;;;;;-0.30;100.00;98150.24;3731495;79;42078;-18
2021/01/04 08:42:32;;;;;;;32.93;10.70;;;;;;;-0.29;100.00;98151.95;3705817;80;43635;-19
2021/01/04 08:47:41;;;;;;;37.03;11.20;;;;;;;-0.22;100.00;98154.55;3735223;79;43408;-19
2021/01/04 08:52:50;;;;;;;32.57;10.27;;;;;;;-0.13;100.00;98150.47;3718002;79;44032;-19
2021/01/04 08:57:57;;;;;;;29.07;9.80;;;;;;;-0.15;100.00;98155.84;3734240;79;43994;-19
2021/01/04 09:03:03;;;;;;;33.07;10.23;;;;;;;-0.08;100.00;98158.94;3756479;79;44030;-19
2021/01/04 09:08:15;;;;;;;51.03;11.30;;;;;;;-0.13;100.00;98159.25;3720849;79;44110;-19
2021/01/04 09:13:29;;;;;;;45.23;11.00;;;;;;;-0.09;100.00;98162.08;3675242;79;44020;-19
2021/01/04 09:18:38;;;;;;;38.57;11.03;;;;;;;-0.07;100.00;98168.12;3702126;79;42674;-19
2021/01/04 09:23:45;;;;;;;63.10;12.97;;;;;;;-0.13;100.00;98172.97;3715600;79;44011;-19
2021/01/04 09:28:56;;;;;;;40.87;11.60;;;;;;;-0.13;100.00;98179.11;3719983;79;43720;-18
2021/01/04 09:34:02;;;;;;;57.00;12.67;;;;;;;-0.04;100.00;98173.20;3678409;80;44053;-18
2021/01/04 09:39:10;;;;;;;45.00;11.53;;;;;;;-0.02;100.00;98179.25;3715469;79;43716;-18
2021/01/04 09:44:20;;;;;;;46.73;11.43;;;;;;;0.01;100.00;98176.03;3636786;81;44004;-19
2021/01/04 09:49:30;;;;;;;44.57;11.90;;;;;;;0.05;100.00;98180.19;3731904;79;43435;-18
2021/01/04 09:54:41;;;;;;;54.17;11.70;;;;;;;0.08;100.00;98174.66;3708265;80;44922;-19
2021/01/04 09:59:49;;;;;;;52.63;10.73;;;;;;;0.01;100.00;98163.63;3770716;78;44104;-19
2021/01/04 10:04:57;;;;;;;60.93;12.03;;;;;;;-0.04;100.00;98162.61;3708059;80;43325;-19
2021/01/04 10:10:09;;;;;;;52.07;12.10;;;;;;;0.03;100.00;98163.55;3709425;79;43999;-19
2021/01/04 10:15:20;;;;;;;62.33;12.27;;;;;;;-0.02;100.00;98163.36;3714389;79;44105;-19
2021/01/04 10:20:31;;;;;;;46.20;11.23;;;;;;;0.10;100.00;98164.83;3754112;79;44009;-19
2021/01/04 10:25:40;;;;;;;49.67;11.43;;;;;;;0.15;100.00;98164.06;3718760;79;43684;-18
2021/01/04 10:30:47;;;;;;;64.63;11.50;;;;;;;0.08;100.00;98156.99;3824980;77;43313;-18
2021/01/04 10:36:08;;;;;;;55.53;11.13;;;;;;;0.20;100.00;98148.69;3773913;78;43676;-18
2021/01/04 10:41:17;;;;;;;44.67;10.83;;;;;;;0.18;100.00;98147.10;3705162;80;43401;-19
2021/01/04 10:46:28;;;;;;;35.20;9.80;;;;;;;0.14;100.00;98135.87;3705274;80;43399;-18
2021/01/04 10:51:37;;;;;;;33.70;10.53;;;;;;;0.23;100.00;98136.56;3704552;79;43452;-19
2021/01/04 10:56:55;;;;;;;44.33;10.97;;;;;;;0.21;100.00;98145.58;3704169;79;44022;-18
2021/01/04 11:02:05;;;;;;;37.37;11.13;;;;;;;0.18;100.00;98136.50;3702096;80;43254;-19
2021/01/04 11:07:26;;;;;;;42.80;10.80;;;;;;;0.14;100.00;98139.84;3705273;80;44068;-18
2021/01/04 11:12:32;;;;;;;39.70;11.37;;;;;;;0.14;100.00;98139.84;3693933;80;43744;-19
2021/01/04 11:17:38;;;;;;;37.93;10.70;;;;;;;0.17;100.00;98129.05;3705275;80;43717;-19
2021/01/04 11:22:44;;;;;;;40.90;9.83;;;;;;;0.24;100.00;98122.38;3701752;80;43642;-18
2021/01/04 11:27:50;;;;;;;30.87;10.47;;;;;;;0.21;100.00;98122.57;3699741;80;43689;-18
2021/01/04 11:32:57;;;;;;;37.27;9.83;;;;;;;0.22;100.00;98122.95;3755889;78;44090;-18
2021/01/04 11:38:04;;;;;;;58.73;11.47;;;;;;;0.13;100.00;98126.22;3737889;79;43532;-18
2021/01/04 11:43:10;;;;;;;50.73;10.10;;;;;;;0.07;100.00;98125.29;3756185;79;43411;-18
2021/01/04 11:48:17;;;;;;;42.10;9.93;;;;;;;0.07;100.00;98114.23;3720916;79;43388;-18
2021/01/04 11:53:23;;;;;;;31.20;9.53;;;;;;;0.10;100.00;98107.41;3700441;80;43422;-18
2021/01/04 11:58:29;;;;;;;33.67;9.70;;;;;;;0.13;100.00;98120.43;3704995;79;44048;-19
2021/01/04 12:03:35;;;;;;;40.77;9.70;;;;;;;0.14;100.00;98109.38;3705345;79;43424;-18
2021/01/04 12:08:41;;;;;;;53.60;11.00;;;;;;;0.07;100.00;98106.75;3608252;80;44193;-18
2021/01/04 12:13:48;;;;;;;48.23;9.93;;;;;;;0.06;100.00;98097.13;3704840;80;43028;-18
2021/01/04 12:18:53;;;;;;;40.27;10.60;;;;;;;0.04;100.00;98096.38;3746500;79;43326;-18
2021/01/04 12:24:00;;;;;;;45.33;11.30;;;;;;;0.08;100.00;98091.23;3729444;79;44101;-18
2021/01/04 12:29:06;;;;;;;113.53;13.43;;;;;;;0.10;100.00;98089.33;3755371;79;44064;-18
2021/01/04 12:34:11;;;;;;;93.13;11.60;;;;;;;0.09;100.00;98096.91;3763744;78;44195;-18
2021/01/04 12:39:17;;;;;;;66.70;12.53;;;;;;;-0.06;100.00;98091.67;3708099;80;44697;-18
2021/01/04 12:44:23;;;;;;;61.80;11.10;;;;;;;0.03;100.00;98094.19;3708203;79;43299;-18
2021/01/04 12:49:29;;;;;;;70.30;12.20;;;;;;;0.06;100.00;98096.64;3766193;78;43355;-18
2021/01/04 12:54:36;;;;;;;91.13;12.43;;;;;;;0.00;100.00;98097.07;3704603;79;43665;-18
2021/01/04 12:59:42;;;;;;;66.30;11.23;;;;;;;-0.01;100.00;98086.94;3766974;78;44630;-18
2021/01/04 13:04:48;;;;;;;41.37;10.87;;;;;;;-0.01;100.00;98082.13;3708381;79;44081;-18
2021/01/04 13:09:54;;;;;;;29.90;10.50;;;;;;;0.06;100.00;98079.42;3648671;81;44263;-18
2021/01/04 13:15:01;;;;;;;48.73;11.70;;;;;;;-0.01;100.00;98081.64;3640260;79;43685;-18
2021/01/04 13:20:09;;;;;;;49.30;12.10;;;;;;;0.04;100.00;98080.48;3771046;79;43703;-18
2021/01/04 13:25:16;;;;;;;54.20;10.77;;;;;;;0.04;100.00;98088.44;3726333;79;44051;-19
2021/01/04 13:30:23;;;;;;;73.50;12.73;;;;;;;-0.02;100.00;98090.53;3770737;78;43992;-18
2021/01/04 13:35:30;;;;;;;61.63;11.43;;;;;;;0.05;100.00;98092.30;3726015;79;43285;-18
2021/01/04 13:40:37;;;;;;;66.37;11.93;;;;;;;-0.03;100.00;98082.21;3753818;79;44085;-18
2021/01/04 13:45:44;;;;;;;82.57;11.13;;;;;;;-0.10;100.00;98079.61;3744614;79;44476;-18
2021/01/04 13:50:50;;;;;;;90.23;13.07;;;;;;;-0.05;100.00;98087.25;3697224;80;43699;-18
2021/01/04 13:55:56;;;;;;;78.17;11.70;;;;;;;-0.13;100.00;98098.34;3707133;79;43258;-18
2021/01/04 14:01:02;;;;;;;61.53;11.23;;;;;;;-0.18;100.00;98098.66;3702578;79;43155;-18
2021/01/04 14:06:08;;;;;;;61.37;11.70;;;;;;;-0.14;100.00;98101.94;3670496;80;44082;-18
2021/01/04 14:11:17;;;;;;;53.47;11.50;;;;;;;-0.13;100.00;98095.70;3775157;77;44042;-18
2021/01/04 14:16:26;;;;;;;68.23;10.47;;;;;;;-0.18;100.00;98095.17;3695413;80;44487;-18
2021/01/04 14:21:33;;;;;;;61.43;11.27;;;;;;;-0.20;100.00;98082.50;3695400;80;43295;-20
2021/01/04 14:26:39;;;;;;;80.13;11.47;;;;;;;-0.21;100.00;98093.55;3706752;79;44649;-18
2021/01/04 14:31:47;;;;;;;64.70;12.10;;;;;;;-0.17;100.00;98095.05;3752009;79;43718;-18
2021/01/04 14:36:53;;;;;;;64.43;11.23;;;;;;;-0.15;100.00;98094.94;3731085;79;43354;-18
2021/01/04 14:42:01;;;;;;;77.03;11.27;;;;;;;-0.12;100.00;98085.97;3641226;81;43286;-18
2021/01/04 14:47:08;;;;;;;58.20;10.83;;;;;;;-0.16;100.00;98093.25;3624735;80;44474;-18
2021/01/04 14:52:15;;;;;;;47.50;10.53;;;;;;;-0.09;100.00;98098.98;3763381;77;44005;-18
2021/01/04 14:57:22;;;;;;;63.10;11.00;;;;;;;-0.14;100.00;98105.08;3775267;77;43417;-18
2021/01/04 15:02:30;;;;;;;41.63;10.90;;;;;;;-0.12;100.00;98101.37;3697016;79;43678;-17
2021/01/04 15:07:36;;;;;;;36.03;10.20;;;;;;;-0.11;100.00;98107.04;3721322;79;43400;-18
2021/01/04 15:12:42;;;;;;;33.97;9.27;;;;;;;-0.14;100.00;98101.94;3707717;79;44074;-18
2021/01/04 15:17:49;;;;;;;22.87;8.50;;;;;;;-0.12;100.00;98103.19;3731073;79;43716;-19
2021/01/04 15:22:55;;;;;;;27.17;9.10;;;;;;;-0.06;100.00;98090.84;3751944;79;43693;-18
2021/01/04 15:28:01;;;;;;;21.50;7.53;;;;;;;-0.10;100.00;98089.34;3693144;79;43413;-18
2021/01/04 15:33:07;;;;;;;22.33;7.90;;;;;;;-0.13;100.00;98087.75;3639128;81;43453;-18
2021/01/04 15:38:13;;;;;;;39.47;9.70;;;;;;;-0.13;100.00;98086.92;3737192;79;44035;-18
2021/01/04 15:43:19;;;;;;;44.93;10.13;;;;;;;-0.14;100.00;98080.75;3733745;79;43322;-18
2021/01/04 15:48:25;;;;;;;47.57;9.83;;;;;;;-0.10;100.00;98078.29;3700505;80;44462;-18
2021/01/04 15:53:31;;;;;;;52.93;11.00;;;;;;;-0.11;100.00;98084.53;3697458;80;43349;-18
2021/01/04 15:58:38;;;;;;;52.67;11.93;;;;;;;-0.20;100.00;98079.86;3700335;80;44100;-18
2021/01/04 16:03:44;;;;;;;55.80;11.27;;;;;;;-0.15;100.00;98076.41;3695392;80;44085;-18
2021/01/04 16:08:50;;;;;;;144.57;12.97;;;;;;;-0.16;100.00;98087.95;3704827;80;44038;-18
2021/01/04 16:13:56;;;;;;;76.23;11.77;;;;;;;-0.21;100.00;98077.67;3697905;79;43673;-18
2021/01/04 16:19:02;;;;;;;91.53;13.47;;;;;;;-0.20;100.00;98089.13;3757904;79;43411;-18
2021/01/04 16:24:09;;;;;;;87.20;10.93;;;;;;;-0.25;100.00;98088.56;3752897;79;43925;-19
2021/01/04 16:29:16;;;;;;;49.27;10.83;;;;;;;-0.27;100.00;98090.00;3707088;79;43430;-19
2021/01/04 16:34:25;;;;;;;53.10;11.03;;;;;;;-0.23;100.00;98094.61;3694607;80;44028;-19
2021/01/04 16:39:31;;;;;;;37.57;10.03;;;;;;;-0.18;100.00;98103.11;3721250;79;43031;-18
2021/01/04 16:44:38;;;;;;;39.00;10.10;;;;;;;-0.24;100.00;98097.75;3695383;80;44141;-19
2021/01/04 16:49:45;;;;;;;51.03;10.30;;;;;;;-0.22;100.00;98094.98;3708333;79;43986;-18
2021/01/04 16:54:51;;;;;;;38.67;9.30;;;;;;;-0.24;100.00;98099.53;3770804;79;44050;-18
2021/01/04 16:59:56;;;;;;;38.87;9.50;;;;;;;-0.26;100.00;98100.09;3707860;80;44054;-18
2021/01/04 17:05:04;;;;;;;36.47;9.33;;;;;;;-0.24;100.00;98102.18;3706518;79;44025;-18
2021/01/04 17:10:12;;;;;;;34.23;9.57;;;;;;;-0.22;100.00;98105.58;3648402;81;43450;-18
2021/01/04 17:15:19;;;;;;;51.20;11.13;;;;;;;-0.21;100.00;98111.25;3652622;79;44221;-18
2021/01/04 17:20:24;;;;;;;50.23;10.77;;;;;;;-0.24;100.00;98103.50;3726930;79;43290;-18
2021/01/04 17:25:30;;;;;;;40.93;9.03;;;;;;;-0.27;100.00;98111.17;3712967;79;44101;-18
2021/01/04 17:30:36;;;;;;;38.03;10.23;;;;;;;-0.23;100.00;98116.63;3717411;79;43365;-18
2021/01/04 17:35:42;;;;;;;32.07;8.57;;;;;;;-0.25;100.00;98111.06;3657454;78;44192;-18
2021/01/04 17:40:49;;;;;;;26.17;8.30;;;;;;;-0.20;100.00;98114.27;3642990;80;43690;-18
2021/01/04 17:45:56;;;;;;;33.30;8.87;;;;;;;-0.18;100.00;98115.03;3634634;81;43680;-18
2021/01/04 17:51:02;;;;;;;24.67;8.07;;;;;;;-0.19;100.00;98122.10;3643073;80;43959;-17
2021/01/04 17:56:10;;;;;;;34.27;10.90;;;;;;;-0.21;100.00;98121.84;3645504;81;43697;-18
2021/01/04 18:01:16;;;;;;;27.13;9.80;;;;;;;-0.16;100.00;98121.91;3621094;80;43250;-18
2021/01/04 18:06:25;;;;;;;47.90;12.03;;;;;;;-0.22;100.00;98118.81;3641801;80;44011;-17
2021/01/04 18:11:34;;;;;;;45.23;11.53;;;;;;;-0.23;100.00;98113.14;3641133;81;43371;-18
2021/01/04 18:16:43;;;;;;;42.23;10.30;;;;;;;-0.24;100.00;98109.66;3636264;81;44412;-18
2021/01/04 18:21:49;;;;;;;54.97;10.60;;;;;;;-0.28;100.00;98112.58;3647754;80;44032;-18
2021/01/04 18:26:56;;;;;;;60.93;11.10;;;;;;;-0.33;100.00;98112.43;3662157;80;44032;-18
2021/01/04 18:32:04;;;;;;;67.13;11.93;;;;;;;-0.28;100.00;98112.58;3643057;80;44007;-18
2021/01/04 18:37:10;;;;;;;47.13;10.60;;;;;;;-0.29;100.00;98114.89;3636225;81;43467;-18
2021/01/04 18:42:17;;;;;;;70.70;11.93;;;;;;;-0.23;100.00;98111.81;3632959;81;44118;-18
2021/01/04 18:47:23;;;;;;;69.40;13.33;;;;;;;-0.29;100.00;98112.23;3634178;80;42917;-18
2021/01/04 18:52:29;;;;;;;66.03;12.13;;;;;;;-0.29;100.00;98113.56;3630574;80;43082;-18
2021/01/04 18:57:35;;;;;;;53.77;11.33;;;;;;;-0.29;100.00;98112.23;3630030;80;44046;-18
2021/01/04 19:02:42;;;;;;;63.67;12.13;;;;;;;-0.24;100.00;98107.47;3638997;80;43558;-18
2021/01/04 19:07:48;;;;;;;45.93;10.57;;;;;;;-0.26;100.00;98101.42;3595692;82;44026;-18
2021/01/04 19:12:54;;;;;;;48.50;10.60;;;;;;;-0.22;100.00;98113.03;3596658;82;44482;-18
2021/01/04 19:18:00;;;;;;;46.50;10.50;;;;;;;-0.19;100.00;98117.30;3637458;81;44600;-18
2021/01/04 19:23:09;;;;;;;48.80;11.23;;;;;;;-0.20;100.00;98112.95;3636222;81;43373;-18
2021/01/04 19:28:15;;;;;;;55.97;11.63;;;;;;;-0.19;100.00;98123.43;3635860;80;44499;-20
2021/01/04 19:33:21;;;;;;;38.70;9.97;;;;;;;-0.24;100.00;98124.68;3638687;80;43373;-19
2021/01/04 19:38:27;;;;;;;36.30;9.70;;;;;;;-0.24;100.00;98129.98;3612482;81;44468;-19
2021/01/04 19:43:33;;;;;;;39.00;9.90;;;;;;;-0.15;100.00;98130.69;3702920;80;43295;-20
2021/01/04 19:48:40;;;;;;;35.73;8.90;;;;;;;-0.13;100.00;98130.12;3701772;80;43673;-19
2021/01/04 19:53:46;;;;;;;32.00;9.70;;;;;;;-0.07;100.00;98127.54;3642770;81;43630;-20
2021/01/04 19:58:53;;;;;;;33.60;9.20;;;;;;;-0.06;100.00;98129.23;3649175;80;44102;-20
2021/01/04 20:04:01;;;;;;;34.27;9.43;;;;;;;-0.10;100.00;98128.60;3676387;80;43042;-20
2021/01/04 20:09:08;;;;;;;29.73;9.50;;;;;;;0.03;100.00;98120.67;3650812;80;43340;-20
2021/01/04 20:14:15;;;;;;;30.37;9.70;;;;;;;0.01;100.00;98118.59;3648334;80;43365;-20
2021/01/04 20:19:22;;;;;;;29.20;9.33;;;;;;;0.05;100.00;98121.92;3655331;80;43651;-20
2021/01/04 20:24:28;;;;;;;30.17;8.90;;;;;;;0.06;100.00;98125.78;3583298;83;43976;-20
2021/01/04 20:29:37;;;;;;;27.23;9.70;;;;;;;-0.07;100.00;98122.24;3643195;81;43527;-21
2021/01/04 20:34:44;;;;;;;26.77;9.27;;;;;;;0.02;100.00;98125.59;3643372;80;44038;-19
2021/01/04 20:39:50;;;;;;;32.13;9.47;;;;;;;0.03;100.00;98122.00;3644085;80;44019;-19
2021/01/04 20:44:55;;;;;;;37.50;9.20;;;;;;;0.02;100.00;98127.41;3644078;81;44240;-20
2021/01/04 20:50:01;;;;;;;37.43;9.43;;;;;;;0.01;100.00;98121.73;3640922;81;43710;-19
2021/01/04 20:55:10;;;;;;;29.47;8.90;;;;;;;0.01;100.00;98123.89;3640870;81;43712;-19
2021/01/04 21:00:19;;;;;;;41.37;10.00;;;;;;;-0.02;100.00;98120.16;3644443;81;43207;-19
2021/01/04 21:05:25;;;;;;;46.77;11.80;;;;;;;-0.05;100.00;98120.34;3647582;80;43673;-21
2021/01/04 21:10:31;;;;;;;29.27;10.60;;;;;;;-0.01;100.00;98117.39;3642992;81;44062;-18
2021/01/04 21:15:37;;;;;;;34.07;8.40;;;;;;;0.00;100.00;98107.66;3644006;81;43412;-19
2021/01/04 21:20:44;;;;;;;40.33;10.63;;;;;;;-0.03;100.00;98120.61;3641049;81;43306;-19
2021/01/04 21:25:51;;;;;;;57.77;11.67;;;;;;;-0.02;100.00;98117.50;3641113;81;43681;-20
2021/01/04 21:30:56;;;;;;;42.47;9.03;;;;;;;-0.06;100.00;98103.59;3644206;81;43731;-18
2021/01/04 21:36:07;;;;;;;37.60;9.73;;;;;;;-0.16;100.00;98111.31;3643708;80;44247;-20
2021/01/04 21:41:13;;;;;;;67.30;11.53;;;;;;;-0.14;100.00;98112.53;3631430;80;43018;-19
2021/01/04 21:46:22;;;;;;;50.83;10.20;;;;;;;-0.15;100.00;98101.56;3630795;81;43938;-19
2021/01/04 21:51:30;;;;;;;70.17;11.10;;;;;;;-0.14;100.00;98109.88;3633712;81;43270;-19
2021/01/04 21:56:36;;;;;;;54.60;10.23;;;;;;;-0.18;100.00;98109.24;3633570;81;43697;-20
2021/01/04 22:01:43;;;;;;;71.10;11.30;;;;;;;-0.14;100.00;98109.05;3634180;81;43440;-20
2021/01/04 22:06:49;;;;;;;67.17;11.20;;;;;;;-0.24;100.00;98111.44;3633599;80;44003;-19
2021/01/04 22:11:56;;;;;;;66.63;10.80;;;;;;;-0.16;100.00;98110.45;3634028;81;44053;-19
2021/01/04 22:17:02;;;;;;;49.33;11.17;;;;;;;-0.25;100.00;98111.93;3632879;81;43711;-19
2021/01/04 22:22:09;;;;;;;58.20;10.30;;;;;;;-0.24;100.00;98112.77;3630442;82;44060;-19
2021/01/04 22:27:14;;;;;;;50.60;10.13;;;;;;;-0.20;100.00;98119.57;3631710;81;43681;-19
2021/01/04 22:32:20;;;;;;;43.37;9.87;;;;;;;-0.31;100.00;98109.67;3633717;81;43038;-19
2021/01/04 22:37:26;;;;;;;43.97;10.07;;;;;;;-0.17;100.00;98099.48;3633685;81;44055;-19
2021/01/04 22:42:33;;;;;;;35.30;10.20;;;;;;;-0.17;100.00;98092.41;3633118;80;44468;-19
2021/01/04 22:47:39;;;;;;;47.13;9.77;;;;;;;-0.14;100.00;98107.23;3632417;81;43410;-20
2021/01/04 22:52:45;;;;;;;54.40;9.87;;;;;;;-0.18;100.00;98107.09;3630824;82;44082;-20
2021/01/04 22:57:51;;;;;;;67.57;11.03;;;;;;;-0.23;100.00;98095.45;3630462;81;43971;-20
2021/01/04 23:02:56;;;;;;;72.30;12.47;;;;;;;-0.16;100.00;98102.51;3630622;82;43440;-19
2021/01/04 23:08:03;;;;;;;86.33;11.80;;;;;;;-0.14;100.00;98099.78;3632084;81;43681;-20
2021/01/04 23:13:11;;;;;;;67.80;11.40;;;;;;;-0.18;100.00;98091.20;3633245;80;43620;-19
2021/01/04 23:18:18;;;;;;;88.33;12.23;;;;;;;-0.14;100.00;98084.73;3631271;81;44089;-20
2021/01/04 23:23:24;;;;;;;85.67;13.23;;;;;;;-0.19;100.00;98096.12;3630275;82;43393;-19
2021/01/04 23:28:31;;;;;;;94.73;12.17;;;;;;;-0.14;100.00;98094.00;3632330;81;44197;-19
2021/01/04 23:33:38;;;;;;;106.23;12.03;;;;;;;-0.17;100.00;98088.89;3633361;81;43678;-19